Time;durP1;ratioP1;P1;durP2;ratioP2;P2;SDS_P1;SDS_P2;PMS_P1;PMS_P2;Temp;Humidity;BMP_temperature;BMP_pressure;BME280_temperature;BME280_humidity;BME280_pressure;Samples;Min_cycle;Max_cycle;Signal;HPM_P1;HPM_P2
2022/06/21 00:01:48;;;;;;;4.03;2.30;;;13.10;99.90;;;;;;4969058;28;20199;-81
2022/06/21 00:04:15;;;;;;;3.90;2.10;;;13.00;99.90;;;;;;4971298;28;20211;-81
2022/06/21 00:06:42;;;;;;;3.23;2.10;;;13.00;99.90;;;;;;4972645;28;20203;-81
2022/06/21 00:09:12;;;;;;;4.17;2.03;;;13.00;99.90;;;;;;4972390;28;20229;-81
2022/06/21 00:11:39;;;;;;;3.23;2.10;;;13.00;99.90;;;;;;4972741;28;20587;-80
2022/06/21 00:14:06;;;;;;;3.90;2.40;;;13.10;99.90;;;;;;4971862;28;20218;-80
2022/06/21 00:16:33;;;;;;;4.23;2.70;;;13.00;99.90;;;;;;4972191;28;20632;-79
2022/06/21 00:19:02;;;;;;;3.10;2.40;;;13.10;99.90;;;;;;4971973;28;20618;-83
2022/06/21 00:21:34;;;;;;;5.07;2.47;;;13.10;99.90;;;;;;4972757;28;20211;-82
2022/06/21 00:24:01;;;;;;;2.77;2.23;;;13.10;99.90;;;;;;4972422;28;20191;-82
2022/06/21 00:26:30;;;;;;;4.50;2.77;;;13.10;99.90;;;;;;4972048;28;20954;-81
2022/06/21 00:28:57;;;;;;;2.93;2.40;;;13.10;99.90;;;;;;4971375;28;20207;-81
2022/06/21 00:31:28;;;;;;;3.57;2.67;;;13.10;99.90;;;;;;4972258;28;20202;-80
2022/06/21 00:33:55;;;;;;;3.77;2.40;;;13.10;99.90;;;;;;4952571;29;20226;-80
2022/06/21 00:36:25;;;;;;;4.53;2.90;;;13.10;99.90;;;;;;4967743;28;20237;-81
2022/06/21 00:38:54;;;;;;;4.93;2.63;;;13.00;99.90;;;;;;4971560;28;20583;-81
2022/06/21 00:41:38;;;;;;;2.70;2.37;;;13.00;99.90;;;;;;4971425;28;20206;-80
2022/06/21 00:44:08;;;;;;;3.67;2.50;;;13.00;99.90;;;;;;4957970;28;20239;-81
2022/06/21 00:46:39;;;;;;;3.97;2.77;;;13.00;99.90;;;;;;4952589;29;20222;-81
2022/06/21 00:49:13;;;;;;;2.73;2.27;;;13.10;99.90;;;;;;4956740;28;20203;-80
2022/06/21 00:51:43;;;;;;;4.57;2.80;;;12.80;99.90;;;;;;4971790;28;20208;-80
2022/06/21 00:54:17;;;;;;;2.67;2.50;;;12.70;99.90;;;;;;4971793;28;20211;-84
2022/06/21 00:56:51;;;;;;;5.67;2.60;;;12.60;99.90;;;;;;4972176;28;20258;-84
2022/06/21 00:59:20;;;;;;;3.47;3.10;;;12.50;99.90;;;;;;4971269;28;20713;-85
2022/06/21 01:01:48;;;;;;;2.93;2.57;;;12.50;99.90;;;;;;4971238;28;20210;-83
2022/06/21 01:04:25;;;;;;;3.10;2.60;;;12.50;99.90;;;;;;4971696;28;20265;-77
2022/06/21 01:06:58;;;;;;;5.13;3.03;;;12.50;99.90;;;;;;4971609;28;20206;-77
2022/06/21 01:09:31;;;;;;;6.90;2.70;;;12.50;99.90;;;;;;4970963;28;20653;-77
2022/06/21 01:12:01;;;;;;;2.80;2.40;;;12.50;99.90;;;;;;4970688;28;20270;-77
2022/06/21 01:14:31;;;;;;;8.20;2.60;;;12.50;99.90;;;;;;4969977;28;20214;-77
2022/06/21 01:16:58;;;;;;;3.13;2.47;;;12.60;99.90;;;;;;4987487;28;20230;-80
2022/06/21 01:19:36;;;;;;;5.63;2.30;;;12.70;99.90;;;;;;4970684;28;20211;-80
2022/06/21 01:22:15;;;;;;;3.23;2.40;;;12.70;99.90;;;;;;4970618;28;20198;-80
2022/06/21 01:24:52;;;;;;;2.70;2.50;;;12.80;99.90;;;;;;4971220;28;20203;-80
2022/06/21 01:27:20;;;;;;;4.30;2.63;;;12.80;99.90;;;;;;4971149;28;20199;-80
2022/06/21 01:29:48;;;;;;;3.07;2.77;;;12.70;99.90;;;;;;4970693;28;20211;-81
2022/06/21 01:32:15;;;;;;;4.23;2.73;;;12.70;99.90;;;;;;4970345;28;20206;-77
2022/06/21 01:34:42;;;;;;;4.07;2.93;;;12.70;99.90;;;;;;4970118;28;20208;-77
2022/06/21 01:37:11;;;;;;;3.93;2.73;;;12.70;99.90;;;;;;4970721;28;20725;-79
2022/06/21 01:39:44;;;;;;;2.70;2.47;;;12.80;99.90;;;;;;4970275;28;20257;-76
2022/06/21 01:42:13;;;;;;;3.90;2.60;;;12.90;99.90;;;;;;4970643;28;20384;-77
2022/06/21 01:44:47;;;;;;;2.80;2.40;;;12.80;99.90;;;;;;4970095;28;20211;-76
2022/06/21 01:47:18;;;;;;;3.20;2.60;;;12.80;99.90;;;;;;4970188;28;20644;-76
2022/06/21 01:49:50;;;;;;;5.53;2.87;;;12.70;99.90;;;;;;4970125;28;20209;-76
2022/06/21 01:52:20;;;;;;;4.33;3.17;;;12.60;99.90;;;;;;4970082;28;20195;-76
2022/06/21 01:54:53;;;;;;;3.93;2.63;;;12.60;99.90;;;;;;4970242;28;20244;-76
2022/06/21 01:57:20;;;;;;;3.17;2.90;;;12.60;99.90;;;;;;4956949;28;20228;-76
2022/06/21 01:59:52;;;;;;;3.30;3.10;;;12.50;99.90;;;;;;4969841;28;20552;-76
2022/06/21 02:02:22;;;;;;;3.57;2.60;;;12.50;99.90;;;;;;4969685;28;20290;-76
2022/06/21 02:04:55;;;;;;;4.40;2.67;;;12.60;99.90;;;;;;4969632;28;20221;-76
2022/06/21 02:07:25;;;;;;;7.07;2.90;;;12.50;99.90;;;;;;4969863;28;20199;-75
2022/06/21 02:10:00;;;;;;;4.30;2.50;;;12.60;99.90;;;;;;4969527;28;20564;-75
2022/06/21 02:12:29;;;;;;;3.10;2.70;;;12.60;99.90;;;;;;4969953;28;20398;-75
2022/06/21 02:14:59;;;;;;;3.37;2.63;;;12.60;99.90;;;;;;4970010;28;20217;-81
2022/06/21 02:17:28;;;;;;;3.70;3.10;;;12.60;99.90;;;;;;4976308;28;20230;-81
2022/06/21 02:20:02;;;;;;;3.83;2.87;;;12.50;99.90;;;;;;4989151;28;20210;-81
2022/06/21 02:22:31;;;;;;;6.60;2.67;;;12.50;99.90;;;;;;4972916;28;20649;-75
2022/06/21 02:24:58;;;;;;;3.33;2.80;;;12.50;99.90;;;;;;4969627;28;20207;-77
2022/06/21 02:27:30;;;;;;;3.90;2.87;;;12.40;99.90;;;;;;4968723;28;20689;-77
2022/06/21 02:30:02;;;;;;;5.43;2.83;;;12.40;99.90;;;;;;4968587;28;20218;-77
2022/06/21 02:32:33;;;;;;;2.90;2.60;;;12.50;99.90;;;;;;4948092;29;20199;-77
2022/06/21 02:35:05;;;;;;;4.67;2.63;;;12.50;99.90;;;;;;4947644;29;20211;-77
2022/06/21 02:37:33;;;;;;;4.90;2.90;;;12.40;99.90;;;;;;4947896;28;20240;-77
2022/06/21 02:40:03;;;;;;;3.23;2.83;;;12.40;99.90;;;;;;4947354;28;20243;-77
2022/06/21 02:42:33;;;;;;;3.83;3.00;;;12.40;99.90;;;;;;4948592;28;20233;-74
2022/06/21 02:45:07;;;;;;;4.00;3.60;;;12.30;99.90;;;;;;4966880;28;20210;-75
2022/06/21 02:47:41;;;;;;;3.33;3.03;;;12.40;99.90;;;;;;4966892;28;20736;-75
2022/06/21 02:50:27;;;;;;;4.10;2.73;;;12.40;99.90;;;;;;4967053;28;20200;-75
2022/06/21 02:52:56;;;;;;;4.87;2.87;;;12.40;99.90;;;;;;4966682;28;20219;-75
2022/06/21 02:55:35;;;;;;;4.73;2.87;;;12.50;99.90;;;;;;4967064;28;20265;-75
2022/06/21 02:58:09;;;;;;;4.97;2.93;;;12.50;99.90;;;;;;4967347;28;20230;-74
2022/06/21 03:00:37;;;;;;;3.37;3.07;;;12.50;99.90;;;;;;4967190;28;20214;-75
2022/06/21 03:03:08;;;;;;;7.60;2.70;;;12.50;99.90;;;;;;4966950;28;20202;-75
2022/06/21 03:05:35;;;;;;;4.23;2.47;;;12.50;99.90;;;;;;4966921;28;20349;-75
2022/06/21 03:08:06;;;;;;;6.00;2.90;;;12.50;99.90;;;;;;4967430;28;20203;-76
2022/06/21 03:10:37;;;;;;;4.37;2.77;;;12.50;99.90;;;;;;4967003;28;20203;-75
2022/06/21 03:13:09;;;;;;;5.93;2.97;;;12.60;99.90;;;;;;4962396;28;20204;-78
2022/06/21 03:15:38;;;;;;;6.97;3.10;;;12.50;99.90;;;;;;4965324;28;20206;-77
2022/06/21 03:18:09;;;;;;;4.53;2.80;;;12.40;99.90;;;;;;4968031;28;20238;-78
2022/06/21 03:20:37;;;;;;;4.43;2.90;;;12.40;99.90;;;;;;4968034;28;20206;-78
2022/06/21 03:23:06;;;;;;;7.73;3.50;;;12.30;99.90;;;;;;4967880;28;20613;-77
2022/06/21 03:25:39;;;;;;;6.07;3.40;;;12.30;99.90;;;;;;4967854;28;20207;-78
2022/06/21 03:28:25;;;;;;;4.33;2.97;;;12.30;99.90;;;;;;4967230;28;20212;-77
2022/06/21 03:31:00;;;;;;;5.10;3.27;;;12.30;99.90;;;;;;4967582;28;20199;-77
2022/06/21 03:33:28;;;;;;;3.40;3.10;;;12.30;99.90;;;;;;4969069;28;20205;-77
2022/06/21 03:35:56;;;;;;;3.57;2.83;;;12.40;99.90;;;;;;4969004;28;20681;-77
2022/06/21 03:38:23;;;;;;;3.47;2.63;;;12.40;99.90;;;;;;4971676;28;20245;-78
2022/06/21 03:43:41;;;;;;;7.23;3.20;;;12.30;99.90;;;;;;4972345;28;20300;-78
2022/06/21 03:46:14;;;;;;;6.07;3.20;;;12.40;99.90;;;;;;4972654;28;20282;-78
2022/06/21 03:48:47;;;;;;;6.77;2.90;;;12.50;99.90;;;;;;4972207;28;20203;-78
2022/06/21 03:51:17;;;;;;;6.97;3.10;;;12.60;99.90;;;;;;4972566;28;20199;-78
2022/06/21 03:53:49;;;;;;;6.73;3.27;;;12.50;99.90;;;;;;4972856;28;20199;-77
2022/06/21 03:56:20;;;;;;;5.90;2.80;;;12.40;99.90;;;;;;4972216;28;20199;-77
2022/06/21 03:58:55;;;;;;;8.93;3.13;;;12.40;99.90;;;;;;4972267;28;20879;-78
2022/06/21 04:01:27;;;;;;;6.13;3.10;;;12.50;99.90;;;;;;4971773;28;20215;-78
2022/06/21 04:04:00;;;;;;;5.83;2.93;;;12.60;99.90;;;;;;4971811;28;20206;-77
2022/06/21 04:06:33;;;;;;;3.97;2.83;;;12.60;99.90;;;;;;4972383;28;20206;-78
2022/06/21 04:09:03;;;;;;;3.43;2.87;;;12.70;99.90;;;;;;4971778;28;20642;-77
2022/06/21 04:11:37;;;;;;;3.97;2.90;;;12.70;99.90;;;;;;4972560;28;20195;-77
2022/06/21 04:14:13;;;;;;;5.83;3.50;;;12.50;99.90;;;;;;4972153;28;20237;-77
2022/06/21 04:16:46;;;;;;;5.37;3.10;;;12.50;99.90;;;;;;4972098;28;20261;-77
2022/06/21 04:19:22;;;;;;;8.30;3.13;;;12.50;99.90;;;;;;4971537;28;20223;-77
2022/06/21 04:21:54;;;;;;;11.63;3.93;;;12.40;99.90;;;;;;4972057;28;20203;-78
2022/06/21 04:24:27;;;;;;;6.97;3.53;;;12.50;99.90;;;;;;4971860;28;20318;-78
2022/06/21 04:27:00;;;;;;;8.97;3.27;;;12.50;99.90;;;;;;4972076;28;20213;-78
2022/06/21 04:29:34;;;;;;;4.33;3.33;;;12.60;99.90;;;;;;4971880;28;20199;-78
2022/06/21 04:32:07;;;;;;;6.73;3.13;;;12.60;99.90;;;;;;4971721;28;20254;-78
2022/06/21 04:34:39;;;;;;;8.10;3.47;;;12.60;99.90;;;;;;4971407;28;20199;-78
2022/06/21 04:37:10;;;;;;;7.57;3.33;;;12.70;99.90;;;;;;4971537;28;20199;-79
2022/06/21 04:39:41;;;;;;;8.30;3.33;;;12.70;99.90;;;;;;4971425;28;20638;-78
2022/06/21 04:42:12;;;;;;;5.97;3.50;;;12.60;99.90;;;;;;4971962;28;20198;-78
2022/06/21 04:44:45;;;;;;;5.03;3.27;;;12.70;99.90;;;;;;4971660;28;20230;-78
2022/06/21 04:47:21;;;;;;;5.47;3.30;;;12.70;99.90;;;;;;4971591;28;20199;-78
2022/06/21 04:49:51;;;;;;;7.37;3.13;;;12.80;99.90;;;;;;4970753;28;20225;-78
2022/06/21 04:52:24;;;;;;;6.57;3.20;;;12.80;99.90;;;;;;4971309;28;20662;-75
2022/06/21 04:54:51;;;;;;;5.47;3.37;;;13.00;99.90;;;;;;4971372;28;20195;-75
2022/06/21 04:57:21;;;;;;;9.27;3.97;;;13.00;99.90;;;;;;4970942;28;20602;-76
2022/06/21 04:59:50;;;;;;;6.77;3.93;;;13.00;99.90;;;;;;4971307;28;20229;-75
2022/06/21 05:02:22;;;;;;;4.33;3.47;;;13.00;99.90;;;;;;4971366;28;20281;-76
2022/06/21 05:04:53;;;;;;;6.53;3.50;;;13.00;99.90;;;;;;4970900;28;20202;-76
2022/06/21 05:07:24;;;;;;;5.90;4.00;;;13.10;99.90;;;;;;4971177;28;20658;-76
2022/06/21 05:09:54;;;;;;;8.30;3.50;;;13.00;99.90;;;;;;4971072;28;20195;-76
2022/06/21 05:12:25;;;;;;;5.17;3.90;;;13.10;99.90;;;;;;4963632;28;20460;-77
2022/06/21 05:14:56;;;;;;;5.70;3.60;;;13.20;99.90;;;;;;4951823;29;20211;-76
2022/06/21 05:17:25;;;;;;;5.83;3.60;;;13.10;99.90;;;;;;4957850;28;20201;-77
2022/06/21 05:19:55;;;;;;;6.60;3.67;;;13.10;99.90;;;;;;4971021;28;20218;-77
2022/06/21 05:22:28;;;;;;;8.77;3.90;;;13.20;99.90;;;;;;4971474;28;20207;-77
2022/06/21 05:24:55;;;;;;;4.83;3.37;;;13.20;99.90;;;;;;4971093;28;20238;-76
2022/06/21 05:27:29;;;;;;;6.37;4.30;;;13.20;99.90;;;;;;4970268;28;20209;-77
2022/06/21 05:29:59;;;;;;;4.43;3.77;;;13.20;99.90;;;;;;4970963;28;20199;-77
2022/06/21 05:32:32;;;;;;;8.83;3.50;;;13.30;99.90;;;;;;4971124;28;20196;-77
2022/06/21 05:35:15;;;;;;;7.07;3.20;;;13.30;99.90;;;;;;4970468;28;20206;-77
2022/06/21 05:37:51;;;;;;;6.87;4.03;;;13.40;99.90;;;;;;4970549;28;20239;-77
2022/06/21 05:40:25;;;;;;;9.57;3.80;;;13.50;99.90;;;;;;4970147;28;20253;-77
2022/06/21 05:42:52;;;;;;;5.47;3.47;;;13.60;99.90;;;;;;4970629;28;20584;-77
2022/06/21 05:45:21;;;;;;;5.83;3.93;;;13.60;99.90;;;;;;4970056;28;20239;-77
2022/06/21 05:47:56;;;;;;;7.03;3.50;;;13.70;99.90;;;;;;4970235;28;20591;-77
2022/06/21 05:50:27;;;;;;;5.37;3.53;;;13.70;99.90;;;;;;4970383;28;20190;-77
2022/06/21 05:52:56;;;;;;;5.53;3.33;;;13.70;99.90;;;;;;4970294;28;20205;-77
2022/06/21 05:55:26;;;;;;;6.20;3.23;;;13.70;99.90;;;;;;4969971;28;20211;-77
2022/06/21 05:57:56;;;;;;;6.87;3.10;;;13.70;99.90;;;;;;4970109;28;20227;-77
2022/06/21 06:00:29;;;;;;;6.47;3.10;;;13.80;99.90;;;;;;4968815;28;20647;-77
2022/06/21 06:03:01;;;;;;;7.10;3.10;;;13.80;99.90;;;;;;4970803;28;20194;-79
2022/06/21 06:05:32;;;;;;;6.03;4.33;;;13.90;99.90;;;;;;4969790;28;20214;-77
2022/06/21 06:08:06;;;;;;;5.17;2.97;;;13.90;99.90;;;;;;4970123;28;20199;-77
2022/06/21 06:10:34;;;;;;;7.13;3.17;;;13.90;99.90;;;;;;4969998;28;20249;-77
2022/06/21 06:13:06;;;;;;;5.60;3.23;;;14.00;99.90;;;;;;4969896;28;20237;-77
2022/06/21 06:15:38;;;;;;;7.43;2.90;;;14.10;99.90;;;;;;4969737;28;20214;-78
2022/06/21 06:18:14;;;;;;;9.40;3.33;;;14.20;99.90;;;;;;4969389;28;20215;-77
2022/06/21 06:20:49;;;;;;;4.83;3.10;;;14.30;99.90;;;;;;4969526;28;20285;-77
2022/06/21 06:23:21;;;;;;;6.57;3.30;;;14.30;99.90;;;;;;4970009;28;20659;-77
2022/06/21 06:25:53;;;;;;;5.37;3.00;;;14.20;99.90;;;;;;4970420;28;20237;-77
2022/06/21 06:28:25;;;;;;;6.13;2.90;;;14.10;99.90;;;;;;4969833;28;20199;-77
2022/06/21 06:31:01;;;;;;;4.77;2.90;;;14.20;99.90;;;;;;4969546;28;20218;-77
2022/06/21 06:33:35;;;;;;;7.77;3.17;;;14.20;99.90;;;;;;4969817;28;20637;-78
2022/06/21 06:36:08;;;;;;;5.57;2.90;;;14.20;99.90;;;;;;4969241;28;20557;-77
2022/06/21 06:38:36;;;;;;;8.60;3.30;;;14.30;99.90;;;;;;4969804;28;20238;-78
2022/06/21 06:41:11;;;;;;;7.27;2.50;;;14.40;99.90;;;;;;4969233;28;20235;-77
2022/06/21 06:43:42;;;;;;;5.53;2.67;;;14.40;99.90;;;;;;4969700;28;20210;-77
2022/06/21 06:46:17;;;;;;;5.53;2.77;;;14.50;99.90;;;;;;4969654;28;20209;-77
2022/06/21 06:48:46;;;;;;;7.43;2.90;;;14.60;99.90;;;;;;4969182;28;20653;-77
2022/06/21 06:51:43;;;;;;;7.50;2.90;;;14.60;99.90;;;;;;4968717;28;20211;-77
2022/06/21 06:54:18;;;;;;;5.50;2.63;;;14.60;99.90;;;;;;4969070;28;20191;-77
2022/06/21 06:56:58;;;;;;;7.93;3.23;;;14.70;99.90;;;;;;4969547;28;20202;-77
2022/06/21 06:59:26;;;;;;;9.03;3.00;;;14.70;99.90;;;;;;4969453;28;20226;-77
2022/06/21 07:01:58;;;;;;;6.93;3.03;;;14.80;99.90;;;;;;4969552;28;20245;-77
2022/06/21 07:04:33;;;;;;;10.63;3.27;;;14.90;99.90;;;;;;4969327;28;20195;-78
2022/06/21 07:07:04;;;;;;;7.10;2.87;;;14.90;99.90;;;;;;4969495;28;20234;-77
2022/06/21 07:09:36;;;;;;;14.30;3.03;;;15.00;99.90;;;;;;4969439;28;20646;-77
2022/06/21 07:12:08;;;;;;;7.10;2.50;;;15.00;99.90;;;;;;4969653;28;20247;-78
2022/06/21 07:14:36;;;;;;;5.77;2.23;;;15.10;99.90;;;;;;4973395;28;20211;-77
2022/06/21 07:17:07;;;;;;;4.20;2.40;;;15.10;99.90;;;;;;4973465;28;20227;-78
2022/06/21 07:19:36;;;;;;;5.47;2.20;;;15.20;99.90;;;;;;4973346;28;20225;-78
2022/06/21 07:22:03;;;;;;;7.87;2.70;;;15.30;99.90;;;;;;4973022;28;20206;-78
2022/06/21 07:24:29;;;;;;;4.03;1.90;;;15.30;99.90;;;;;;4973149;28;20229;-78
2022/06/21 07:27:00;;;;;;;6.57;2.47;;;15.40;99.90;;;;;;4972620;28;20203;-78
2022/06/21 07:29:31;;;;;;;5.63;1.73;;;15.40;99.90;;;;;;4973168;28;20230;-78
2022/06/21 07:32:02;;;;;;;5.37;1.93;;;15.50;99.90;;;;;;4972906;28;20774;-78
2022/06/21 07:34:39;;;;;;;4.03;2.00;;;15.60;99.90;;;;;;4972957;28;20226;-78
2022/06/21 07:37:10;;;;;;;6.90;1.80;;;15.60;99.90;;;;;;4973341;28;20226;-77
2022/06/21 07:39:43;;;;;;;4.30;1.80;;;15.60;99.90;;;;;;4972480;28;20253;-77
2022/06/21 07:42:15;;;;;;;5.60;2.13;;;15.70;99.90;;;;;;4972866;28;20206;-77
2022/06/21 07:44:47;;;;;;;6.50;2.00;;;15.70;99.90;;;;;;4972283;28;20203;-78
2022/06/21 07:47:21;;;;;;;2.97;1.83;;;15.80;99.90;;;;;;4972348;28;20211;-77
2022/06/21 07:49:52;;;;;;;2.97;1.50;;;15.80;99.90;;;;;;4972625;28;20191;-77
2022/06/21 07:52:24;;;;;;;3.20;1.40;;;15.90;99.90;;;;;;4972609;28;20229;-78
2022/06/21 07:54:56;;;;;;;3.33;1.80;;;15.90;99.90;;;;;;4972533;28;20203;-77
2022/06/21 07:57:27;;;;;;;2.67;1.40;;;16.00;99.90;;;;;;4972401;28;20202;-78
2022/06/21 08:00:00;;;;;;;2.73;1.50;;;16.10;99.90;;;;;;4972163;28;20321;-78
2022/06/21 08:08:13;;;;;;;5.00;2.00;;;16.30;99.90;;;;;;4971777;28;20207;-78
2022/06/21 08:10:46;;;;;;;3.13;1.60;;;16.40;99.90;;;;;;4972347;28;20201;-77
2022/06/21 08:13:13;;;;;;;2.87;1.60;;;16.50;99.90;;;;;;4971985;28;20666;-77
2022/06/21 08:15:44;;;;;;;10.23;1.97;;;16.60;99.90;;;;;;4972708;28;20661;-77
2022/06/21 08:18:16;;;;;;;3.47;1.50;;;16.70;99.90;;;;;;4972530;28;20201;-77
2022/06/21 08:20:49;;;;;;;3.07;1.60;;;16.80;99.90;;;;;;4971515;28;20203;-77
2022/06/21 08:23:20;;;;;;;2.53;1.40;;;16.90;99.90;;;;;;4972001;28;20195;-77
2022/06/21 08:25:55;;;;;;;3.83;1.53;;;17.00;99.90;;;;;;4972541;28;20195;-77
2022/06/21 08:28:29;;;;;;;4.33;1.83;;;17.00;99.90;;;;;;4972478;28;20574;-77
2022/06/21 08:30:58;;;;;;;2.83;1.57;;;17.10;99.90;;;;;;4972135;28;20649;-77
2022/06/21 08:33:33;;;;;;;4.13;1.63;;;17.10;99.90;;;;;;4972339;28;20665;-77
2022/06/21 08:36:07;;;;;;;4.63;2.20;;;17.20;99.90;;;;;;4972478;28;20199;-78
2022/06/21 08:38:39;;;;;;;3.13;1.47;;;17.30;99.90;;;;;;4971855;28;20227;-78
2022/06/21 08:41:56;;;;;;;2.43;1.50;;;17.30;99.90;;;;;;4972348;28;20238;-78
2022/06/21 08:45:40;;;;;;;3.17;1.37;;;17.30;99.90;;;;;;4968435;28;20207;-78
2022/06/21 08:48:14;;;;;;;4.37;1.77;;;17.50;99.90;;;;;;4971304;28;20214;-78
2022/06/21 08:50:52;;;;;;;4.73;1.90;;;17.60;99.90;;;;;;4972084;28;20211;-80
2022/06/21 08:53:32;;;;;;;3.67;1.30;;;17.60;99.90;;;;;;4971775;28;20203;-78
2022/06/21 08:56:07;;;;;;;6.43;1.63;;;17.60;99.90;;;;;;4972745;28;20201;-77
2022/06/21 08:58:45;;;;;;;6.03;1.60;;;17.60;99.90;;;;;;4973008;28;20195;-78
2022/06/21 09:01:21;;;;;;;3.83;1.30;;;17.80;99.90;;;;;;4972478;28;20317;-78
2022/06/21 09:04:02;;;;;;;3.73;1.47;;;17.80;99.90;;;;;;4972387;28;20199;-77
2022/06/21 09:06:42;;;;;;;2.70;1.40;;;17.90;99.90;;;;;;4970957;28;20294;-78
2022/06/21 09:09:22;;;;;;;5.30;1.70;;;18.10;99.90;;;;;;4972185;28;20199;-78
2022/06/21 09:11:58;;;;;;;4.77;1.63;;;18.10;99.90;;;;;;4972321;28;20203;-77
2022/06/21 09:14:57;;;;;;;4.23;1.63;;;18.20;99.90;;;;;;4955022;28;20306;-79
2022/06/21 09:17:30;;;;;;;4.27;1.80;;;18.20;99.90;;;;;;4958475;28;20218;-77
2022/06/21 09:20:13;;;;;;;2.60;1.30;;;18.30;99.90;;;;;;4971717;28;20233;-78
2022/06/21 09:22:53;;;;;;;2.23;1.43;;;18.40;99.90;;;;;;4972088;28;20199;-78
2022/06/21 09:25:28;;;;;;;3.53;1.07;;;18.50;99.90;;;;;;4972057;28;20205;-78
2022/06/21 09:28:05;;;;;;;4.10;1.93;;;18.50;99.90;;;;;;4971687;28;20206;-78
2022/06/21 09:30:40;;;;;;;4.57;1.73;;;18.50;99.90;;;;;;4971298;28;20199;-78
2022/06/21 09:33:12;;;;;;;4.17;1.83;;;18.60;99.90;;;;;;4971041;28;20205;-78
2022/06/21 09:35:47;;;;;;;3.47;1.77;;;18.60;99.90;;;;;;4969862;28;20660;-78
2022/06/21 09:38:25;;;;;;;1.93;1.40;;;18.70;99.90;;;;;;4969682;28;20245;-78
2022/06/21 09:41:05;;;;;;;3.43;1.33;;;18.80;99.90;;;;;;4970313;28;20246;-78
2022/06/21 09:43:44;;;;;;;3.63;1.30;;;18.80;99.90;;;;;;4970625;28;20210;-78
2022/06/21 09:46:21;;;;;;;4.57;1.60;;;19.00;99.90;;;;;;4970243;28;20203;-78
2022/06/21 09:48:58;;;;;;;3.97;1.47;;;19.10;99.90;;;;;;4969952;28;20649;-78
2022/06/21 09:51:31;;;;;;;3.70;1.40;;;19.20;99.90;;;;;;4969881;28;20591;-78
2022/06/21 09:54:13;;;;;;;2.97;1.23;;;19.20;99.90;;;;;;4970215;28;20674;-78
2022/06/21 09:56:48;;;;;;;5.00;1.47;;;19.30;99.90;;;;;;4970381;28;20206;-78
2022/06/21 09:59:22;;;;;;;3.63;1.60;;;19.30;99.90;;;;;;4969870;28;20246;-78
2022/06/21 10:01:55;;;;;;;3.07;1.40;;;19.40;99.90;;;;;;4970555;28;20202;-78
2022/06/21 10:04:29;;;;;;;2.93;1.50;;;19.50;99.90;;;;;;4970084;28;20205;-77
2022/06/21 10:07:06;;;;;;;1.33;1.10;;;19.60;99.90;;;;;;4970149;28;20199;-78
2022/06/21 10:09:45;;;;;;;6.03;1.30;;;19.70;99.90;;;;;;4970267;28;20657;-78
2022/06/21 10:12:26;;;;;;;2.77;1.50;;;19.60;99.90;;;;;;4970327;28;20199;-78
2022/06/21 10:15:24;;;;;;;2.80;1.53;;;19.70;99.90;;;;;;4950619;29;20571;-78
2022/06/21 10:18:19;;;;;;;3.03;1.37;;;19.80;99.90;;;;;;4960810;28;20206;-78
2022/06/21 10:20:57;;;;;;;3.10;1.63;;;19.80;99.90;;;;;;4944188;28;20234;-78
2022/06/21 10:23:51;;;;;;;3.27;1.50;;;19.90;99.90;;;;;;4970571;28;20203;-78
2022/06/21 10:26:44;;;;;;;3.57;1.07;;;20.00;99.90;;;;;;4969796;28;20205;-78
2022/06/21 10:29:49;;;;;;;1.33;1.10;;;20.00;99.90;;;;;;4950320;29;20206;-78
2022/06/21 10:32:45;;;;;;;3.27;1.20;;;20.20;99.50;;;;;;4934780;29;20218;-78
2022/06/21 10:35:34;;;;;;;2.17;1.27;;;20.30;98.70;;;;;;4958466;28;20297;-79
2022/06/21 10:38:18;;;;;;;2.53;0.90;;;20.50;98.90;;;;;;4969703;28;20230;-78
2022/06/21 10:41:20;;;;;;;3.10;1.30;;;20.70;97.90;;;;;;4969360;28;20740;-78
2022/06/21 10:44:08;;;;;;;2.97;1.27;;;20.80;98.10;;;;;;4966816;28;20210;-78
2022/06/21 10:46:39;;;;;;;5.63;1.73;;;21.00;98.20;;;;;;4969237;28;20661;-78
2022/06/21 10:49:39;;;;;;;4.20;1.53;;;21.00;97.60;;;;;;4969545;28;20211;-78
2022/06/21 10:52:29;;;;;;;2.73;1.53;;;21.10;96.80;;;;;;4967402;28;20225;-79
2022/06/21 10:55:17;;;;;;;2.37;1.10;;;21.20;97.20;;;;;;4957305;28;20259;-78
2022/06/21 10:57:54;;;;;;;2.57;1.23;;;21.30;95.30;;;;;;4969555;28;20213;-79
2022/06/21 11:03:39;;;;;;;2.70;1.00;;;21.50;95.80;;;;;;4969162;28;20194;-78
2022/06/21 11:06:24;;;;;;;0.87;0.80;;;21.60;96.00;;;;;;4969998;28;20195;-78
2022/06/21 11:09:01;;;;;;;4.43;1.40;;;21.70;96.50;;;;;;4969972;28;20629;-78
2022/06/21 11:11:34;;;;;;;4.27;1.50;;;21.90;96.60;;;;;;4969687;28;20669;-78
2022/06/21 11:14:07;;;;;;;6.60;1.30;;;21.90;95.60;;;;;;4969140;28;20705;-79
2022/06/21 11:16:44;;;;;;;1.87;1.10;;;22.00;95.10;;;;;;4969947;28;20572;-78
2022/06/21 11:19:19;;;;;;;2.40;1.10;;;22.20;94.30;;;;;;4968191;28;20441;-78
2022/06/21 11:22:07;;;;;;;2.50;1.10;;;22.30;94.20;;;;;;4969718;28;20204;-78
2022/06/21 11:24:44;;;;;;;2.60;1.15;;;22.40;94.20;;;;;;4969560;28;20199;-78
2022/06/21 11:27:18;;;;;;;2.97;1.20;;;22.50;94.00;;;;;;4968787;28;20745;-78
2022/06/21 11:29:54;;;;;;;3.00;1.20;;;22.70;94.90;;;;;;4969616;28;20293;-77
2022/06/21 11:32:28;;;;;;;1.70;1.13;;;22.80;94.00;;;;;;4969512;28;20230;-80
2022/06/21 11:35:06;;;;;;;4.47;1.35;;;22.90;94.60;;;;;;4968606;28;20289;-78
2022/06/21 11:37:48;;;;;;;4.15;1.27;;;23.10;93.70;;;;;;4968710;28;20606;-78
2022/06/21 11:40:33;;;;;;;1.67;1.10;;;23.20;92.00;;;;;;4968699;28;20261;-78
2022/06/21 11:43:03;;;;;;;1.00;0.80;;;23.30;91.30;;;;;;4968921;28;20685;-78
2022/06/21 11:45:44;;;;;;;2.63;1.27;;;23.30;92.10;;;;;;4968784;28;20211;-79
2022/06/21 11:49:04;;;;;;;3.85;0.80;;;23.40;90.80;;;;;;4968989;28;20222;-79
2022/06/21 11:51:47;;;;;;;2.15;1.10;;;23.50;91.10;;;;;;4969134;28;20214;-79
2022/06/21 11:54:21;;;;;;;1.58;0.90;;;23.70;91.20;;;;;;4969123;28;20195;-79
2022/06/21 11:56:56;;;;;;;2.42;1.13;;;23.80;90.10;;;;;;4969139;28;20195;-78
2022/06/21 11:59:29;;;;;;;2.90;1.30;;;23.80;90.70;;;;;;4970446;28;20344;-78
2022/06/21 12:02:02;;;;;;;1.65;1.30;;;23.90;91.00;;;;;;4972435;28;20202;-79
2022/06/21 12:04:39;;;;;;;2.33;1.40;;;23.80;91.20;;;;;;4972202;28;20195;-79
2022/06/21 12:07:15;;;;;;;2.42;1.02;;;23.90;90.60;;;;;;4972406;28;20205;-79
2022/06/21 12:09:49;;;;;;;1.63;1.20;;;24.10;90.70;;;;;;4972550;28;20202;-79
2022/06/21 12:12:32;;;;;;;1.92;1.27;;;24.20;90.60;;;;;;4972487;28;20197;-79
2022/06/21 12:15:19;;;;;;;3.83;1.23;;;24.40;90.50;;;;;;4952882;29;20761;-79
2022/06/21 12:17:51;;;;;;;1.27;0.80;;;24.50;89.70;;;;;;4961681;28;20199;-79
2022/06/21 12:20:22;;;;;;;4.43;1.40;;;24.60;89.00;;;;;;4971384;28;20233;-79
2022/06/21 12:22:54;;;;;;;2.58;1.20;;;24.60;90.50;;;;;;4971894;28;20203;-79
2022/06/21 12:25:22;;;;;;;2.78;1.33;;;24.80;88.70;;;;;;4971787;28;20194;-79
2022/06/21 12:27:48;;;;;;;2.55;1.15;;;24.90;87.60;;;;;;4972228;28;20258;-78
2022/06/21 12:30:21;;;;;;;4.38;1.30;;;24.80;86.30;;;;;;4971941;28;20219;-79
2022/06/21 12:32:50;;;;;;;2.80;1.30;;;24.90;88.70;;;;;;4972414;28;20222;-79
2022/06/21 12:35:19;;;;;;;1.77;0.98;;;25.00;87.00;;;;;;4971978;28;20215;-79
2022/06/21 12:37:51;;;;;;;1.02;0.95;;;25.00;85.80;;;;;;4971705;28;20238;-79
2022/06/21 12:40:27;;;;;;;6.88;1.15;;;25.10;86.20;;;;;;4971001;28;20250;-79
2022/06/21 12:43:08;;;;;;;1.58;1.10;;;25.10;85.60;;;;;;4972188;28;20210;-79
2022/06/21 12:45:58;;;;;;;2.35;1.00;;;25.10;87.00;;;;;;4971667;28;20199;-79
2022/06/21 12:48:46;;;;;;;2.42;1.40;;;25.20;86.10;;;;;;4971974;28;20283;-78
2022/06/21 12:51:20;;;;;;;2.83;1.00;;;25.20;87.20;;;;;;4971748;28;20218;-78
2022/06/21 12:54:25;;;;;;;2.65;0.95;;;24.90;86.20;;;;;;4972247;28;20195;-78
2022/06/21 12:57:09;;;;;;;3.80;1.13;;;25.00;86.80;;;;;;4972112;28;20209;-79
2022/06/21 12:59:45;;;;;;;3.15;1.23;;;25.20;86.60;;;;;;4972233;28;20205;-79
2022/06/21 13:02:36;;;;;;;1.55;1.10;;;25.30;85.40;;;;;;4971911;28;20215;-78
2022/06/21 13:05:19;;;;;;;1.85;1.15;;;25.60;87.00;;;;;;4971448;28;20206;-78
2022/06/21 13:08:13;;;;;;;6.72;1.17;;;25.80;86.80;;;;;;4971346;28;20281;-79
2022/06/21 13:10:49;;;;;;;1.63;0.70;;;25.90;86.50;;;;;;4970856;28;20195;-80
2022/06/21 13:13:32;;;;;;;2.90;1.23;;;26.10;87.10;;;;;;4971319;28;20237;-80
2022/06/21 13:16:11;;;;;;;1.58;1.20;;;26.30;86.10;;;;;;4971147;28;20205;-80
2022/06/21 13:19:23;;;;;;;2.28;1.13;;;26.40;82.70;;;;;;4971517;28;20206;-80
2022/06/21 13:22:00;;;;;;;2.88;1.10;;;26.50;82.00;;;;;;4936065;28;20239;-79
2022/06/21 13:24:45;;;;;;;3.08;1.40;;;26.60;81.10;;;;;;4970078;28;20214;-78
2022/06/21 13:27:24;;;;;;;2.00;1.27;;;26.70;81.00;;;;;;4970741;28;20231;-79
2022/06/21 13:30:30;;;;;;;2.72;1.08;;;26.80;81.40;;;;;;4970536;28;20195;-79
2022/06/21 13:33:09;;;;;;;2.92;1.10;;;27.00;80.00;;;;;;4971189;28;20276;-79
2022/06/21 13:35:47;;;;;;;1.92;1.27;;;27.10;79.20;;;;;;4970876;28;20352;-80
2022/06/21 13:38:21;;;;;;;1.35;1.10;;;27.20;78.80;;;;;;4970765;28;20227;-79